This is the latest recevied weather packets stored in our database for station/object ED4YAZ-13. If no packets are shown the sender has not sent any weather packets the latest 10 day(s).
| Time | Temp. | Humidity | Pressure | Rain* | Wind** | Luminosity | Snow |
|---|---|---|---|---|---|---|---|
| 1777977143 | 13.33° C | 50% | 1014 hPa | - | - | - | - |
| 1777976543 | 15° C | 46% | 1013.2 hPa | - | - | - | - |
| 1777975942 | 13.89° C | 52% | 1013.8 hPa | - | - | - | - |
| 1777975342 | 13.33° C | 54% | 1014.1 hPa | - | - | - | - |
| 1777974733 | 13.89° C | 53% | 1013.9 hPa | - | - | - | - |
| 1777974728 | 13.89° C | 53% | 1013.9 hPa | - | - | - | - |
| 1777974128 | 13.33° C | 54% | 1014 hPa | - | - | - | - |
| 1777973528 | 13.33° C | 57% | 1014.1 hPa | - | - | - | - |
| 1777972928 | 13.33° C | 55% | 1013.8 hPa | - | - | - | - |
| 1777972322 | 12.78° C | 57% | 1014.3 hPa | - | - | - | - |
| 1777971722 | 12.22° C | 61% | 1014.5 hPa | - | - | - | - |
| 1777971122 | 11.67° C | 61% | 1014.7 hPa | - | - | - | - |
| 1777970508 | 11.67° C | 63% | 1014.8 hPa | - | - | - | - |
| 1777969899 | 11.67° C | 63% | 1014.8 hPa | - | - | - | - |
| 1777969304 | 10.56° C | 67% | 1015.3 hPa | - | - | - | - |
| 1777969299 | 10.56° C | 67% | 1015.3 hPa | - | - | - | - |
| 1777968699 | 10° C | 67% | 1015.5 hPa | - | - | - | - |
| 1777968099 | 10.56° C | 67% | 1015.3 hPa | - | - | - | - |
| 1777968099 | 10.56° C | 67% | 1015.3 hPa | - | - | - | - |
| 1777967499 | 10° C | 68% | 1015.4 hPa | - | - | - | - |
| 1777966389 | 10° C | 69% | 1015.6 hPa | - | - | - | - |
| 1777965777 | 9.44° C | 70% | 1015.6 hPa | - | - | - | - |
| 1777965169 | 9.44° C | 71% | 1015.7 hPa | - | - | - | - |
| 1777965164 | 9.44° C | 71% | 1015.7 hPa | - | - | - | - |
| 1777964564 | 9.44° C | 69% | 1015.6 hPa | - | - | - | - |
* Rain since midnight (hover to see other rain measurements)
** Current wind speed in m/s (hover to see current wind gust speed)